sensor_id;sensor_type;location;lat;lon;timestamp;temperature;humidity
22629;DHT22;11481;53.694;9.910;2023-11-18T00:01:41;5.30;99.90
22629;DHT22;11481;53.694;9.910;2023-11-18T00:04:08;5.40;99.90
22629;DHT22;11481;53.694;9.910;2023-11-18T00:06:42;5.50;99.90
22629;DHT22;11481;53.694;9.910;2023-11-18T00:09:13;5.50;99.90
22629;DHT22;11481;53.694;9.910;2023-11-18T00:11:41;5.60;99.90
22629;DHT22;11481;53.694;9.910;2023-11-18T00:14:11;5.60;99.90
22629;DHT22;11481;53.694;9.910;2023-11-18T00:16:38;5.60;99.90
22629;DHT22;11481;53.694;9.910;2023-11-18T00:19:05;5.70;99.90
22629;DHT22;11481;53.694;9.910;2023-11-18T00:21:32;5.70;99.90
22629;DHT22;11481;53.694;9.910;2023-11-18T00:23:59;5.80;99.90
22629;DHT22;11481;53.694;9.910;2023-11-18T00:26:25;5.70;99.90
22629;DHT22;11481;53.694;9.910;2023-11-18T00:28:52;5.70;99.90
22629;DHT22;11481;53.694;9.910;2023-11-18T00:31:19;5.80;99.90
22629;DHT22;11481;53.694;9.910;2023-11-18T00:33:46;5.80;99.90
22629;DHT22;11481;53.694;9.910;2023-11-18T00:36:13;5.80;99.90
22629;DHT22;11481;53.694;9.910;2023-11-18T00:38:39;5.80;99.90
22629;DHT22;11481;53.694;9.910;2023-11-18T00:41:06;5.80;99.90
22629;DHT22;11481;53.694;9.910;2023-11-18T00:43:33;5.90;99.90
22629;DHT22;11481;53.694;9.910;2023-11-18T00:45:59;6.00;99.90
22629;DHT22;11481;53.694;9.910;2023-11-18T00:48:27;6.00;99.90
22629;DHT22;11481;53.694;9.910;2023-11-18T00:50:54;6.00;99.90
22629;DHT22;11481;53.694;9.910;2023-11-18T00:53:22;6.00;99.90
22629;DHT22;11481;53.694;9.910;2023-11-18T00:55:49;5.90;99.90
22629;DHT22;11481;53.694;9.910;2023-11-18T00:58:16;6.00;99.90
22629;DHT22;11481;53.694;9.910;2023-11-18T01:00:42;5.90;99.90
22629;DHT22;11481;53.694;9.910;2023-11-18T01:03:09;5.90;99.90
22629;DHT22;11481;53.694;9.910;2023-11-18T01:05:37;6.00;99.90
22629;DHT22;11481;53.694;9.910;2023-11-18T01:08:04;5.90;99.90
22629;DHT22;11481;53.694;9.910;2023-11-18T01:10:31;6.00;99.90
22629;DHT22;11481;53.694;9.910;2023-11-18T01:12:58;5.90;99.90
22629;DHT22;11481;53.694;9.910;2023-11-18T01:15:25;6.00;99.90
22629;DHT22;11481;53.694;9.910;2023-11-18T01:17:52;6.00;99.90
22629;DHT22;11481;53.694;9.910;2023-11-18T01:20:18;6.00;99.90
22629;DHT22;11481;53.694;9.910;2023-11-18T01:22:48;5.90;99.90
22629;DHT22;11481;53.694;9.910;2023-11-18T01:25:16;6.00;99.90
22629;DHT22;11481;53.694;9.910;2023-11-18T01:27:45;6.00;99.90
22629;DHT22;11481;53.694;9.910;2023-11-18T01:30:15;6.00;99.90
22629;DHT22;11481;53.694;9.910;2023-11-18T01:32:42;6.00;99.90
22629;DHT22;11481;53.694;9.910;2023-11-18T01:35:09;6.00;99.90
22629;DHT22;11481;53.694;9.910;2023-11-18T01:37:39;6.00;99.90
22629;DHT22;11481;53.694;9.910;2023-11-18T01:40:07;6.00;99.90
22629;DHT22;11481;53.694;9.910;2023-11-18T01:42:34;6.00;99.90
22629;DHT22;11481;53.694;9.910;2023-11-18T01:45:01;6.00;99.90
22629;DHT22;11481;53.694;9.910;2023-11-18T01:47:32;6.00;99.90
22629;DHT22;11481;53.694;9.910;2023-11-18T01:50:00;6.00;99.90
22629;DHT22;11481;53.694;9.910;2023-11-18T01:52:28;6.00;99.90
22629;DHT22;11481;53.694;9.910;2023-11-18T01:54:56;6.00;99.90
22629;DHT22;11481;53.694;9.910;2023-11-18T01:57:24;6.00;99.90
22629;DHT22;11481;53.694;9.910;2023-11-18T01:59:53;6.00;99.90
22629;DHT22;11481;53.694;9.910;2023-11-18T02:02:20;6.00;99.90
22629;DHT22;11481;53.694;9.910;2023-11-18T02:04:48;6.00;99.90
22629;DHT22;11481;53.694;9.910;2023-11-18T02:07:15;6.00;99.90
22629;DHT22;11481;53.694;9.910;2023-11-18T02:09:42;6.00;99.90
22629;DHT22;11481;53.694;9.910;2023-11-18T02:12:23;6.00;99.90
22629;DHT22;11481;53.694;9.910;2023-11-18T02:14:54;6.00;99.90
22629;DHT22;11481;53.694;9.910;2023-11-18T02:17:22;6.00;99.90
22629;DHT22;11481;53.694;9.910;2023-11-18T02:19:53;6.00;99.90
22629;DHT22;11481;53.694;9.910;2023-11-18T02:22:23;6.00;99.90
22629;DHT22;11481;53.694;9.910;2023-11-18T02:24:50;5.90;99.90
22629;DHT22;11481;53.694;9.910;2023-11-18T02:27:16;6.20;99.90
22629;DHT22;11481;53.694;9.910;2023-11-18T02:29:47;5.90;99.90
22629;DHT22;11481;53.694;9.910;2023-11-18T02:37:29;5.90;99.90
22629;DHT22;11481;53.694;9.910;2023-11-18T02:40:04;5.90;99.90
22629;DHT22;11481;53.694;9.910;2023-11-18T02:42:43;5.80;99.90
22629;DHT22;11481;53.694;9.910;2023-11-18T02:45:13;5.80;99.90
22629;DHT22;11481;53.694;9.910;2023-11-18T02:47:46;5.80;99.90
22629;DHT22;11481;53.694;9.910;2023-11-18T02:50:14;5.80;99.90
22629;DHT22;11481;53.694;9.910;2023-11-18T02:52:42;5.80;99.90
22629;DHT22;11481;53.694;9.910;2023-11-18T02:55:09;5.80;99.90
22629;DHT22;11481;53.694;9.910;2023-11-18T02:57:36;5.80;99.90
22629;DHT22;11481;53.694;9.910;2023-11-18T03:00:06;5.70;99.90
22629;DHT22;11481;53.694;9.910;2023-11-18T03:02:38;5.80;99.90
22629;DHT22;11481;53.694;9.910;2023-11-18T03:05:07;5.80;99.90
22629;DHT22;11481;53.694;9.910;2023-11-18T03:07:34;5.60;99.90
22629;DHT22;11481;53.694;9.910;2023-11-18T03:10:01;5.60;99.90
22629;DHT22;11481;53.694;9.910;2023-11-18T03:12:27;5.60;99.90
22629;DHT22;11481;53.694;9.910;2023-11-18T03:14:54;5.60;99.90
22629;DHT22;11481;53.694;9.910;2023-11-18T03:17:22;5.60;99.90
22629;DHT22;11481;53.694;9.910;2023-11-18T03:19:49;5.50;99.90
22629;DHT22;11481;53.694;9.910;2023-11-18T03:22:17;5.60;99.90
22629;DHT22;11481;53.694;9.910;2023-11-18T03:24:43;5.60;99.90
22629;DHT22;11481;53.694;9.910;2023-11-18T03:27:10;5.60;99.90
22629;DHT22;11481;53.694;9.910;2023-11-18T03:29:37;5.60;99.90
22629;DHT22;11481;53.694;9.910;2023-11-18T03:32:04;5.60;99.90
22629;DHT22;11481;53.694;9.910;2023-11-18T03:34:31;5.70;99.90
22629;DHT22;11481;53.694;9.910;2023-11-18T03:36:59;5.70;99.90
22629;DHT22;11481;53.694;9.910;2023-11-18T03:39:25;5.70;99.90
22629;DHT22;11481;53.694;9.910;2023-11-18T03:41:54;5.70;99.90
22629;DHT22;11481;53.694;9.910;2023-11-18T03:44:20;5.70;99.90
22629;DHT22;11481;53.694;9.910;2023-11-18T03:46:47;5.70;99.90
22629;DHT22;11481;53.694;9.910;2023-11-18T03:49:14;5.60;99.90
22629;DHT22;11481;53.694;9.910;2023-11-18T03:51:40;5.60;99.90
22629;DHT22;11481;53.694;9.910;2023-11-18T03:54:07;5.60;99.90
22629;DHT22;11481;53.694;9.910;2023-11-18T03:56:36;5.50;99.90
22629;DHT22;11481;53.694;9.910;2023-11-18T03:59:03;5.50;99.90
22629;DHT22;11481;53.694;9.910;2023-11-18T04:01:31;5.60;99.90
22629;DHT22;11481;53.694;9.910;2023-11-18T04:03:59;5.50;99.90
22629;DHT22;11481;53.694;9.910;2023-11-18T04:06:26;5.60;99.90
22629;DHT22;11481;53.694;9.910;2023-11-18T04:08:52;5.50;99.90
22629;DHT22;11481;53.694;9.910;2023-11-18T04:11:20;5.50;99.90
22629;DHT22;11481;53.694;9.910;2023-11-18T04:13:46;5.50;99.90
22629;DHT22;11481;53.694;9.910;2023-11-18T04:16:14;5.50;99.90
22629;DHT22;11481;53.694;9.910;2023-11-18T04:18:46;5.60;99.90
22629;DHT22;11481;53.694;9.910;2023-11-18T04:21:13;5.60;99.90
22629;DHT22;11481;53.694;9.910;2023-11-18T04:23:41;5.70;99.90
22629;DHT22;11481;53.694;9.910;2023-11-18T04:26:09;5.80;99.90
22629;DHT22;11481;53.694;9.910;2023-11-18T04:28:36;5.70;99.90
22629;DHT22;11481;53.694;9.910;2023-11-18T04:31:04;5.70;99.90
22629;DHT22;11481;53.694;9.910;2023-11-18T04:33:31;5.70;99.90
22629;DHT22;11481;53.694;9.910;2023-11-18T04:35:58;5.80;99.90
22629;DHT22;11481;53.694;9.910;2023-11-18T04:38:25;5.80;99.90
22629;DHT22;11481;53.694;9.910;2023-11-18T04:40:53;5.70;99.90
22629;DHT22;11481;53.694;9.910;2023-11-18T04:43:23;5.80;99.90
22629;DHT22;11481;53.694;9.910;2023-11-18T04:46:05;5.80;99.90
22629;DHT22;11481;53.694;9.910;2023-11-18T04:48:32;5.80;99.90
22629;DHT22;11481;53.694;9.910;2023-11-18T04:51:00;5.80;99.90
22629;DHT22;11481;53.694;9.910;2023-11-18T04:53:27;5.80;99.90
22629;DHT22;11481;53.694;9.910;2023-11-18T04:55:56;5.80;99.90
22629;DHT22;11481;53.694;9.910;2023-11-18T04:58:23;5.80;99.90
22629;DHT22;11481;53.694;9.910;2023-11-18T05:00:50;5.80;99.90
22629;DHT22;11481;53.694;9.910;2023-11-18T05:03:17;5.90;99.90
22629;DHT22;11481;53.694;9.910;2023-11-18T05:05:44;5.80;99.90
22629;DHT22;11481;53.694;9.910;2023-11-18T05:08:20;5.80;99.90
22629;DHT22;11481;53.694;9.910;2023-11-18T05:10:49;5.80;99.90
22629;DHT22;11481;53.694;9.910;2023-11-18T05:13:16;5.80;99.90
22629;DHT22;11481;53.694;9.910;2023-11-18T05:15:44;5.80;99.90
22629;DHT22;11481;53.694;9.910;2023-11-18T05:18:14;5.90;99.90
22629;DHT22;11481;53.694;9.910;2023-11-18T05:20:42;5.80;99.90
22629;DHT22;11481;53.694;9.910;2023-11-18T05:23:10;5.80;99.90
22629;DHT22;11481;53.694;9.910;2023-11-18T05:25:40;5.80;99.90
22629;DHT22;11481;53.694;9.910;2023-11-18T05:28:07;5.70;99.90
22629;DHT22;11481;53.694;9.910;2023-11-18T05:30:35;5.80;99.90
22629;DHT22;11481;53.694;9.910;2023-11-18T05:33:03;5.70;99.90
22629;DHT22;11481;53.694;9.910;2023-11-18T05:35:33;5.70;99.90
22629;DHT22;11481;53.694;9.910;2023-11-18T05:38:01;5.70;99.90
22629;DHT22;11481;53.694;9.910;2023-11-18T05:40:32;5.70;99.90
22629;DHT22;11481;53.694;9.910;2023-11-18T05:43:02;5.70;99.90
22629;DHT22;11481;53.694;9.910;2023-11-18T05:45:32;5.70;99.90
22629;DHT22;11481;53.694;9.910;2023-11-18T05:48:19;5.70;99.90
22629;DHT22;11481;53.694;9.910;2023-11-18T05:50:45;5.70;99.90
22629;DHT22;11481;53.694;9.910;2023-11-18T05:53:14;5.60;99.90
22629;DHT22;11481;53.694;9.910;2023-11-18T05:55:41;5.70;99.90
22629;DHT22;11481;53.694;9.910;2023-11-18T05:58:08;5.60;99.90
22629;DHT22;11481;53.694;9.910;2023-11-18T06:00:35;5.70;99.90
22629;DHT22;11481;53.694;9.910;2023-11-18T06:03:07;5.60;99.90
22629;DHT22;11481;53.694;9.910;2023-11-18T06:05:34;5.60;99.90
22629;DHT22;11481;53.694;9.910;2023-11-18T06:08:01;5.60;99.90
22629;DHT22;11481;53.694;9.910;2023-11-18T06:10:28;5.60;99.90
22629;DHT22;11481;53.694;9.910;2023-11-18T06:12:57;5.60;99.90
22629;DHT22;11481;53.694;9.910;2023-11-18T06:15:24;5.50;99.90
22629;DHT22;11481;53.694;9.910;2023-11-18T06:17:51;5.60;99.90
22629;DHT22;11481;53.694;9.910;2023-11-18T06:20:18;5.60;99.90
22629;DHT22;11481;53.694;9.910;2023-11-18T06:22:46;5.60;99.90
22629;DHT22;11481;53.694;9.910;2023-11-18T06:25:13;5.60;99.90
22629;DHT22;11481;53.694;9.910;2023-11-18T06:27:39;5.60;99.90
22629;DHT22;11481;53.694;9.910;2023-11-18T06:30:07;5.60;99.90
22629;DHT22;11481;53.694;9.910;2023-11-18T06:32:33;5.60;99.90
22629;DHT22;11481;53.694;9.910;2023-11-18T06:35:00;5.60;99.90
22629;DHT22;11481;53.694;9.910;2023-11-18T06:37:32;5.60;99.90
22629;DHT22;11481;53.694;9.910;2023-11-18T06:39:59;5.50;99.90
22629;DHT22;11481;53.694;9.910;2023-11-18T06:42:26;5.50;99.90
22629;DHT22;11481;53.694;9.910;2023-11-18T06:44:52;5.50;99.90
22629;DHT22;11481;53.694;9.910;2023-11-18T06:47:20;5.50;99.90
22629;DHT22;11481;53.694;9.910;2023-11-18T06:49:47;5.50;99.90
22629;DHT22;11481;53.694;9.910;2023-11-18T06:52:18;5.50;99.90
22629;DHT22;11481;53.694;9.910;2023-11-18T06:54:45;5.50;99.90
22629;DHT22;11481;53.694;9.910;2023-11-18T06:57:12;5.50;99.90
22629;DHT22;11481;53.694;9.910;2023-11-18T06:59:39;5.50;99.90
22629;DHT22;11481;53.694;9.910;2023-11-18T07:02:05;5.50;99.90
22629;DHT22;11481;53.694;9.910;2023-11-18T07:04:33;5.50;99.90
22629;DHT22;11481;53.694;9.910;2023-11-18T07:06:59;5.50;99.90
22629;DHT22;11481;53.694;9.910;2023-11-18T07:09:28;5.50;99.90
22629;DHT22;11481;53.694;9.910;2023-11-18T07:11:54;5.50;99.90
22629;DHT22;11481;53.694;9.910;2023-11-18T07:14:22;5.50;99.90
22629;DHT22;11481;53.694;9.910;2023-11-18T07:16:49;5.50;99.90
22629;DHT22;11481;53.694;9.910;2023-11-18T07:19:15;5.40;99.90
22629;DHT22;11481;53.694;9.910;2023-11-18T07:21:49;5.50;99.90
22629;DHT22;11481;53.694;9.910;2023-11-18T07:24:16;5.50;99.90
22629;DHT22;11481;53.694;9.910;2023-11-18T07:26:45;5.50;99.90
22629;DHT22;11481;53.694;9.910;2023-11-18T07:29:12;5.50;99.90
22629;DHT22;11481;53.694;9.910;2023-11-18T07:31:39;5.50;99.90
22629;DHT22;11481;53.694;9.910;2023-11-18T07:34:05;5.50;99.90
22629;DHT22;11481;53.694;9.910;2023-11-18T07:36:32;5.50;99.90
22629;DHT22;11481;53.694;9.910;2023-11-18T07:38:59;5.50;99.90
22629;DHT22;11481;53.694;9.910;2023-11-18T07:41:33;5.50;99.90
22629;DHT22;11481;53.694;9.910;2023-11-18T07:44:00;5.50;99.90
22629;DHT22;11481;53.694;9.910;2023-11-18T07:46:27;5.50;99.90
22629;DHT22;11481;53.694;9.910;2023-11-18T07:48:56;5.60;99.90
22629;DHT22;11481;53.694;9.910;2023-11-18T07:51:24;5.60;99.90
22629;DHT22;11481;53.694;9.910;2023-11-18T07:53:51;5.60;99.90
22629;DHT22;11481;53.694;9.910;2023-11-18T07:56:19;5.60;99.90
22629;DHT22;11481;53.694;9.910;2023-11-18T07:58:49;5.60;99.90
22629;DHT22;11481;53.694;9.910;2023-11-18T08:01:17;5.70;99.90
22629;DHT22;11481;53.694;9.910;2023-11-18T08:03:44;5.70;99.90
22629;DHT22;11481;53.694;9.910;2023-11-18T08:06:11;5.70;99.90
22629;DHT22;11481;53.694;9.910;2023-11-18T08:08:39;5.70;99.90
22629;DHT22;11481;53.694;9.910;2023-11-18T08:11:06;5.70;99.90
22629;DHT22;11481;53.694;9.910;2023-11-18T08:13:33;5.70;99.90
22629;DHT22;11481;53.694;9.910;2023-11-18T08:15:59;5.70;99.90
22629;DHT22;11481;53.694;9.910;2023-11-18T08:18:26;5.80;99.90
22629;DHT22;11481;53.694;9.910;2023-11-18T08:20:54;5.80;99.90
22629;DHT22;11481;53.694;9.910;2023-11-18T08:23:21;5.80;99.90
22629;DHT22;11481;53.694;9.910;2023-11-18T08:25:48;5.80;99.90
22629;DHT22;11481;53.694;9.910;2023-11-18T08:28:17;5.80;99.90
22629;DHT22;11481;53.694;9.910;2023-11-18T08:30:43;5.90;99.90
22629;DHT22;11481;53.694;9.910;2023-11-18T08:33:10;5.90;99.90
22629;DHT22;11481;53.694;9.910;2023-11-18T08:35:37;5.90;99.90
22629;DHT22;11481;53.694;9.910;2023-11-18T08:38:05;5.90;99.90
22629;DHT22;11481;53.694;9.910;2023-11-18T08:40:35;5.90;99.90
22629;DHT22;11481;53.694;9.910;2023-11-18T08:43:02;6.00;99.90
22629;DHT22;11481;53.694;9.910;2023-11-18T08:45:31;6.00;99.90
22629;DHT22;11481;53.694;9.910;2023-11-18T08:48:01;6.00;99.90
22629;DHT22;11481;53.694;9.910;2023-11-18T08:50:36;6.10;99.90
22629;DHT22;11481;53.694;9.910;2023-11-18T08:53:03;6.10;99.90
22629;DHT22;11481;53.694;9.910;2023-11-18T08:55:37;6.20;99.90
22629;DHT22;11481;53.694;9.910;2023-11-18T08:58:11;6.30;99.90
22629;DHT22;11481;53.694;9.910;2023-11-18T09:00:57;6.30;99.90
22629;DHT22;11481;53.694;9.910;2023-11-18T09:03:41;6.30;99.90
22629;DHT22;11481;53.694;9.910;2023-11-18T09:06:15;6.30;99.90
22629;DHT22;11481;53.694;9.910;2023-11-18T09:08:46;6.30;99.90
22629;DHT22;11481;53.694;9.910;2023-11-18T09:11:20;6.40;99.90
22629;DHT22;11481;53.694;9.910;2023-11-18T09:13:49;6.50;99.90
22629;DHT22;11481;53.694;9.910;2023-11-18T09:16:20;6.50;99.90
22629;DHT22;11481;53.694;9.910;2023-11-18T09:18:49;6.50;99.90
22629;DHT22;11481;53.694;9.910;2023-11-18T09:21:17;6.50;99.90
22629;DHT22;11481;53.694;9.910;2023-11-18T09:23:51;6.50;99.90
22629;DHT22;11481;53.694;9.910;2023-11-18T09:26:18;6.50;99.90
22629;DHT22;11481;53.694;9.910;2023-11-18T09:28:45;6.50;99.90
22629;DHT22;11481;53.694;9.910;2023-11-18T09:31:12;6.60;99.90
22629;DHT22;11481;53.694;9.910;2023-11-18T09:33:40;6.60;99.90
22629;DHT22;11481;53.694;9.910;2023-11-18T09:36:11;6.60;99.90
22629;DHT22;11481;53.694;9.910;2023-11-18T09:38:42;6.70;99.90
22629;DHT22;11481;53.694;9.910;2023-11-18T09:41:13;6.70;99.90
22629;DHT22;11481;53.694;9.910;2023-11-18T09:43:42;6.70;99.90
22629;DHT22;11481;53.694;9.910;2023-11-18T09:48:50;6.90;99.90
22629;DHT22;11481;53.694;9.910;2023-11-18T09:51:24;7.00;99.90
22629;DHT22;11481;53.694;9.910;2023-11-18T09:53:52;7.10;99.90
22629;DHT22;11481;53.694;9.910;2023-11-18T09:56:41;7.20;99.90
22629;DHT22;11481;53.694;9.910;2023-11-18T10:01:57;7.30;99.90
22629;DHT22;11481;53.694;9.910;2023-11-18T10:04:24;7.40;99.90
22629;DHT22;11481;53.694;9.910;2023-11-18T10:06:54;7.40;99.90
22629;DHT22;11481;53.694;9.910;2023-11-18T10:09:29;7.40;99.90
22629;DHT22;11481;53.694;9.910;2023-11-18T10:12:03;7.60;99.90
22629;DHT22;11481;53.694;9.910;2023-11-18T10:14:37;7.60;99.90
22629;DHT22;11481;53.694;9.910;2023-11-18T10:17:07;7.60;99.90
22629;DHT22;11481;53.694;9.910;2023-11-18T10:19:57;7.70;99.90
22629;DHT22;11481;53.694;9.910;2023-11-18T10:22:28;7.70;99.90
22629;DHT22;11481;53.694;9.910;2023-11-18T10:24:56;7.70;99.90
22629;DHT22;11481;53.694;9.910;2023-11-18T10:27:24;7.60;99.90
22629;DHT22;11481;53.694;9.910;2023-11-18T10:30:00;7.70;99.90
22629;DHT22;11481;53.694;9.910;2023-11-18T10:32:29;7.70;99.90
22629;DHT22;11481;53.694;9.910;2023-11-18T10:34:59;7.80;99.90
22629;DHT22;11481;53.694;9.910;2023-11-18T10:37:26;7.90;99.90
22629;DHT22;11481;53.694;9.910;2023-11-18T10:39:59;8.00;99.90
22629;DHT22;11481;53.694;9.910;2023-11-18T10:42:30;8.30;99.90
22629;DHT22;11481;53.694;9.910;2023-11-18T10:44:59;8.10;99.90
22629;DHT22;11481;53.694;9.910;2023-11-18T10:47:33;8.20;99.90
22629;DHT22;11481;53.694;9.910;2023-11-18T10:50:02;8.30;99.90
22629;DHT22;11481;53.694;9.910;2023-11-18T10:52:29;8.30;99.90
22629;DHT22;11481;53.694;9.910;2023-11-18T10:55:01;8.30;99.90
22629;DHT22;11481;53.694;9.910;2023-11-18T10:57:37;8.40;99.90
22629;DHT22;11481;53.694;9.910;2023-11-18T11:00:07;8.40;99.90
22629;DHT22;11481;53.694;9.910;2023-11-18T11:02:40;8.40;99.90
22629;DHT22;11481;53.694;9.910;2023-11-18T11:05:08;8.50;99.90
22629;DHT22;11481;53.694;9.910;2023-11-18T11:07:47;8.50;99.90
22629;DHT22;11481;53.694;9.910;2023-11-18T11:10:15;8.50;99.90
22629;DHT22;11481;53.694;9.910;2023-11-18T11:13:01;8.50;99.90
22629;DHT22;11481;53.694;9.910;2023-11-18T11:15:32;8.40;99.90
22629;DHT22;11481;53.694;9.910;2023-11-18T11:18:19;8.50;99.90
22629;DHT22;11481;53.694;9.910;2023-11-18T11:21:13;8.50;99.90
22629;DHT22;11481;53.694;9.910;2023-11-18T11:24:11;8.50;99.90
22629;DHT22;11481;53.694;9.910;2023-11-18T11:27:14;8.60;99.90
22629;DHT22;11481;53.694;9.910;2023-11-18T11:29:59;8.60;99.90
22629;DHT22;11481;53.694;9.910;2023-11-18T11:32:51;8.80;99.90
22629;DHT22;11481;53.694;9.910;2023-11-18T11:35:23;8.70;99.90
22629;DHT22;11481;53.694;9.910;2023-11-18T11:37:52;8.80;99.90
22629;DHT22;11481;53.694;9.910;2023-11-18T11:40:21;8.70;99.90
22629;DHT22;11481;53.694;9.910;2023-11-18T11:42:50;8.80;99.90
22629;DHT22;11481;53.694;9.910;2023-11-18T11:45:24;8.90;99.90
22629;DHT22;11481;53.694;9.910;2023-11-18T11:47:57;8.90;99.90
22629;DHT22;11481;53.694;9.910;2023-11-18T11:53:22;8.80;99.90
22629;DHT22;11481;53.694;9.910;2023-11-18T11:55:52;8.80;99.90
22629;DHT22;11481;53.694;9.910;2023-11-18T11:58:30;8.70;99.90
22629;DHT22;11481;53.694;9.910;2023-11-18T12:01:18;8.70;99.90
22629;DHT22;11481;53.694;9.910;2023-11-18T12:03:52;8.70;99.90
22629;DHT22;11481;53.694;9.910;2023-11-18T12:06:26;8.70;99.90
22629;DHT22;11481;53.694;9.910;2023-11-18T12:08:53;8.60;99.90
22629;DHT22;11481;53.694;9.910;2023-11-18T12:11:21;8.60;99.90
22629;DHT22;11481;53.694;9.910;2023-11-18T12:14:04;8.50;99.90
22629;DHT22;11481;53.694;9.910;2023-11-18T12:17:02;8.50;99.90
22629;DHT22;11481;53.694;9.910;2023-11-18T12:19:41;8.50;99.90
22629;DHT22;11481;53.694;9.910;2023-11-18T12:22:23;8.40;99.90
22629;DHT22;11481;53.694;9.910;2023-11-18T12:27:44;8.60;99.90
22629;DHT22;11481;53.694;9.910;2023-11-18T12:30:37;8.60;99.90
22629;DHT22;11481;53.694;9.910;2023-11-18T12:33:06;8.70;99.90
22629;DHT22;11481;53.694;9.910;2023-11-18T12:41:08;8.60;99.90
22629;DHT22;11481;53.694;9.910;2023-11-18T12:43:48;8.50;99.90
22629;DHT22;11481;53.694;9.910;2023-11-18T12:46:49;8.50;99.90
22629;DHT22;11481;53.694;9.910;2023-11-18T12:49:23;8.50;99.90
22629;DHT22;11481;53.694;9.910;2023-11-18T12:51:52;8.30;99.90
22629;DHT22;11481;53.694;9.910;2023-11-18T12:54:19;8.30;99.90
22629;DHT22;11481;53.694;9.910;2023-11-18T12:56:51;8.20;99.90
22629;DHT22;11481;53.694;9.910;2023-11-18T12:59:20;8.30;99.90
22629;DHT22;11481;53.694;9.910;2023-11-18T13:01:50;8.30;99.90
22629;DHT22;11481;53.694;9.910;2023-11-18T13:04:24;8.30;99.90
22629;DHT22;11481;53.694;9.910;2023-11-18T13:06:51;8.30;99.90
22629;DHT22;11481;53.694;9.910;2023-11-18T13:09:21;8.20;99.90
22629;DHT22;11481;53.694;9.910;2023-11-18T13:11:59;8.30;99.90
22629;DHT22;11481;53.694;9.910;2023-11-18T13:14:32;8.20;99.90
22629;DHT22;11481;53.694;9.910;2023-11-18T13:17:09;8.20;99.90
22629;DHT22;11481;53.694;9.910;2023-11-18T13:19:39;8.30;99.90
22629;DHT22;11481;53.694;9.910;2023-11-18T13:22:08;8.20;99.90
22629;DHT22;11481;53.694;9.910;2023-11-18T13:24:39;8.20;99.90
22629;DHT22;11481;53.694;9.910;2023-11-18T13:27:11;8.30;99.90
22629;DHT22;11481;53.694;9.910;2023-11-18T13:29:43;8.30;99.90
22629;DHT22;11481;53.694;9.910;2023-11-18T13:32:12;8.30;99.90
22629;DHT22;11481;53.694;9.910;2023-11-18T13:34:39;8.30;99.90
22629;DHT22;11481;53.694;9.910;2023-11-18T13:37:09;8.30;99.90
22629;DHT22;11481;53.694;9.910;2023-11-18T13:39:39;8.30;99.90
22629;DHT22;11481;53.694;9.910;2023-11-18T13:42:27;8.20;99.90
22629;DHT22;11481;53.694;9.910;2023-11-18T13:45:03;8.20;99.90
22629;DHT22;11481;53.694;9.910;2023-11-18T13:47:35;8.20;99.90
22629;DHT22;11481;53.694;9.910;2023-11-18T13:50:07;8.10;99.90
22629;DHT22;11481;53.694;9.910;2023-11-18T13:52:36;8.10;99.90
22629;DHT22;11481;53.694;9.910;2023-11-18T13:55:03;8.00;99.90
22629;DHT22;11481;53.694;9.910;2023-11-18T13:57:35;8.00;99.90
22629;DHT22;11481;53.694;9.910;2023-11-18T14:00:02;7.80;99.90
22629;DHT22;11481;53.694;9.910;2023-11-18T14:02:33;7.90;99.90
22629;DHT22;11481;53.694;9.910;2023-11-18T14:05:03;7.90;99.90
22629;DHT22;11481;53.694;9.910;2023-11-18T14:07:37;7.90;99.90
22629;DHT22;11481;53.694;9.910;2023-11-18T14:10:05;7.90;99.90
22629;DHT22;11481;53.694;9.910;2023-11-18T14:12:34;7.80;99.90
22629;DHT22;11481;53.694;9.910;2023-11-18T14:15:01;7.80;99.90
22629;DHT22;11481;53.694;9.910;2023-11-18T14:17:30;7.80;99.90
22629;DHT22;11481;53.694;9.910;2023-11-18T14:19:59;7.70;99.90
22629;DHT22;11481;53.694;9.910;2023-11-18T14:22:26;7.70;99.90
22629;DHT22;11481;53.694;9.910;2023-11-18T14:24:52;7.70;99.90
22629;DHT22;11481;53.694;9.910;2023-11-18T14:27:20;7.70;99.90
22629;DHT22;11481;53.694;9.910;2023-11-18T14:29:47;7.60;99.90
22629;DHT22;11481;53.694;9.910;2023-11-18T14:32:13;7.60;99.90
22629;DHT22;11481;53.694;9.910;2023-11-18T14:34:41;7.60;99.90
22629;DHT22;11481;53.694;9.910;2023-11-18T14:37:08;7.60;99.90
22629;DHT22;11481;53.694;9.910;2023-11-18T14:39:35;7.60;99.90
22629;DHT22;11481;53.694;9.910;2023-11-18T14:42:03;7.60;99.90
22629;DHT22;11481;53.694;9.910;2023-11-18T14:44:30;7.60;99.90
22629;DHT22;11481;53.694;9.910;2023-11-18T14:46:57;7.50;99.90
22629;DHT22;11481;53.694;9.910;2023-11-18T14:49:25;7.50;99.90
22629;DHT22;11481;53.694;9.910;2023-11-18T14:51:52;7.50;99.90
22629;DHT22;11481;53.694;9.910;2023-11-18T14:54:21;7.60;99.90
22629;DHT22;11481;53.694;9.910;2023-11-18T14:56:47;7.60;99.90
22629;DHT22;11481;53.694;9.910;2023-11-18T14:59:16;7.50;99.90
22629;DHT22;11481;53.694;9.910;2023-11-18T15:01:42;7.50;99.90
22629;DHT22;11481;53.694;9.910;2023-11-18T15:04:10;7.50;99.90
22629;DHT22;11481;53.694;9.910;2023-11-18T15:06:38;7.40;99.90
22629;DHT22;11481;53.694;9.910;2023-11-18T15:09:05;7.40;99.90
22629;DHT22;11481;53.694;9.910;2023-11-18T15:11:34;7.30;99.90
22629;DHT22;11481;53.694;9.910;2023-11-18T15:14:01;7.40;99.90
22629;DHT22;11481;53.694;9.910;2023-11-18T15:16:27;7.30;99.90
22629;DHT22;11481;53.694;9.910;2023-11-18T15:18:54;7.30;99.90
22629;DHT22;11481;53.694;9.910;2023-11-18T15:21:23;7.30;99.90
22629;DHT22;11481;53.694;9.910;2023-11-18T15:23:50;7.20;99.90
22629;DHT22;11481;53.694;9.910;2023-11-18T15:26:16;7.30;99.90
22629;DHT22;11481;53.694;9.910;2023-11-18T15:28:43;7.40;99.90
22629;DHT22;11481;53.694;9.910;2023-11-18T15:31:10;7.40;99.90
22629;DHT22;11481;53.694;9.910;2023-11-18T15:33:37;7.40;99.90
22629;DHT22;11481;53.694;9.910;2023-11-18T15:36:05;7.30;99.90
22629;DHT22;11481;53.694;9.910;2023-11-18T15:38:34;7.40;99.90
22629;DHT22;11481;53.694;9.910;2023-11-18T15:41:02;7.30;99.90
22629;DHT22;11481;53.694;9.910;2023-11-18T15:43:29;7.20;99.90
22629;DHT22;11481;53.694;9.910;2023-11-18T15:45:55;7.20;99.90
22629;DHT22;11481;53.694;9.910;2023-11-18T15:48:25;7.20;99.90
22629;DHT22;11481;53.694;9.910;2023-11-18T15:50:55;7.20;99.90
22629;DHT22;11481;53.694;9.910;2023-11-18T15:53:25;7.20;99.90
22629;DHT22;11481;53.694;9.910;2023-11-18T15:55:54;7.10;99.90
22629;DHT22;11481;53.694;9.910;2023-11-18T15:58:20;7.00;99.90
22629;DHT22;11481;53.694;9.910;2023-11-18T16:00:49;6.90;99.90
22629;DHT22;11481;53.694;9.910;2023-11-18T16:03:18;6.90;99.90
22629;DHT22;11481;53.694;9.910;2023-11-18T16:05:46;6.90;99.90
22629;DHT22;11481;53.694;9.910;2023-11-18T16:08:13;6.80;99.90
22629;DHT22;11481;53.694;9.910;2023-11-18T16:10:40;6.80;99.90
22629;DHT22;11481;53.694;9.910;2023-11-18T16:13:07;6.70;99.90
22629;DHT22;11481;53.694;9.910;2023-11-18T16:15:33;6.70;99.90
22629;DHT22;11481;53.694;9.910;2023-11-18T16:18:00;6.70;99.90
22629;DHT22;11481;53.694;9.910;2023-11-18T16:20:29;6.70;99.90
22629;DHT22;11481;53.694;9.910;2023-11-18T16:23:00;6.70;99.90